createdAt,value
2017-12-01T00:02:24.184Z,7.63
2017-12-01T00:04:51.623Z,7.10
2017-12-01T00:07:19.818Z,7.27
2017-12-01T00:09:47.255Z,7.57
2017-12-01T00:12:15.446Z,7.77
2017-12-01T00:14:42.892Z,6.57
2017-12-01T00:17:11.085Z,7.20
2017-12-01T00:19:38.515Z,6.37
2017-12-01T00:22:06.718Z,6.97
2017-12-01T00:24:34.166Z,7.83
2017-12-01T00:27:01.603Z,8.67
2017-12-01T00:29:29.807Z,8.03
2017-12-01T00:31:57.242Z,8.00
2017-12-01T00:34:24.676Z,7.80
2017-12-01T00:36:52.874Z,8.93
2017-12-01T00:39:20.311Z,9.00
2017-12-01T00:41:48.519Z,8.30
2017-12-01T00:44:15.955Z,7.13
2017-12-01T00:46:43.395Z,7.50
2017-12-01T00:49:11.590Z,7.00
2017-12-01T00:51:39.033Z,8.93
2017-12-01T00:54:07.232Z,7.00
2017-12-01T00:56:34.672Z,7.90
2017-12-01T00:59:02.112Z,7.50
2017-12-01T01:01:30.319Z,9.50
2017-12-01T01:03:57.756Z,8.23
2017-12-01T01:06:25.968Z,7.50
2017-12-01T01:08:53.398Z,8.70
2017-12-01T01:11:20.831Z,8.30
2017-12-01T01:13:49.027Z,7.97
2017-12-01T01:16:16.464Z,7.80
2017-12-01T01:18:44.660Z,7.70
2017-12-01T01:21:12.096Z,8.17
2017-12-01T01:23:40.286Z,8.50
2017-12-01T01:26:07.722Z,7.10
2017-12-01T01:28:35.918Z,7.40
2017-12-01T01:31:03.351Z,8.33
2017-12-01T01:33:31.552Z,7.20
2017-12-01T01:35:59.006Z,7.20
2017-12-01T01:38:26.439Z,8.80
2017-12-01T01:40:54.644Z,7.87
2017-12-01T01:43:22.088Z,7.63
2017-12-01T01:45:49.543Z,7.00
2017-12-01T01:48:16.982Z,7.57
2017-12-01T01:50:45.183Z,6.00
2017-12-01T01:53:12.615Z,7.70
2017-12-01T01:55:40.817Z,7.67
2017-12-01T01:58:08.251Z,7.40
2017-12-01T02:00:35.750Z,7.53
2017-12-01T02:03:03.190Z,7.00
2017-12-01T02:05:30.619Z,7.80
2017-12-01T02:07:58.819Z,8.60
2017-12-01T02:10:26.263Z,9.03
2017-12-01T02:12:53.703Z,8.03
2017-12-01T02:15:21.902Z,7.70
2017-12-01T02:17:49.346Z,8.83
2017-12-01T02:20:16.781Z,7.93
2017-12-01T02:22:44.984Z,8.20
2017-12-01T02:25:12.413Z,9.20
2017-12-01T02:27:40.620Z,9.30
2017-12-01T02:30:08.052Z,7.93
2017-12-01T02:32:36.260Z,8.57
2017-12-01T02:35:03.708Z,8.57
2017-12-01T02:37:31.142Z,7.90
2017-12-01T02:39:58.575Z,7.80
2017-12-01T02:42:26.775Z,7.73
2017-12-01T02:44:54.212Z,8.70
2017-12-01T02:47:22.406Z,8.63
2017-12-01T02:49:49.884Z,7.20
2017-12-01T02:52:17.325Z,7.23
2017-12-01T02:54:49.254Z,9.10
2017-12-01T02:57:17.454Z,7.60
2017-12-01T02:59:44.890Z,9.13
2017-12-01T03:02:13.090Z,8.77
2017-12-01T03:04:40.532Z,9.33
2017-12-01T03:07:08.728Z,9.03
2017-12-01T03:09:36.164Z,8.00
2017-12-01T03:12:04.351Z,7.30
2017-12-01T03:14:31.786Z,8.80
2017-12-01T03:17:00.024Z,9.07
2017-12-01T03:19:27.475Z,8.90
2017-12-01T03:21:54.912Z,8.63
2017-12-01T03:24:22.346Z,8.67
2017-12-01T03:26:49.779Z,8.63
2017-12-01T03:29:17.992Z,9.00
2017-12-01T03:31:45.432Z,8.70
2017-12-01T03:34:12.868Z,9.30
2017-12-01T03:36:41.102Z,9.60
2017-12-01T03:39:08.534Z,8.83
2017-12-01T03:41:35.974Z,10.50
2017-12-01T03:44:03.414Z,8.83
2017-12-01T03:46:31.615Z,10.87
2017-12-01T03:48:59.059Z,9.80
2017-12-01T03:51:26.491Z,9.90
2017-12-01T03:53:54.712Z,10.10
2017-12-01T03:56:22.147Z,9.77
2017-12-01T03:58:49.586Z,10.50
2017-12-01T04:01:17.795Z,10.20
2017-12-01T04:03:45.234Z,9.70
2017-12-01T04:06:12.672Z,10.20
2017-12-01T04:08:40.903Z,10.37
2017-12-01T04:11:08.347Z,11.00
2017-12-01T04:13:35.788Z,10.13
2017-12-01T04:16:03.231Z,10.10
2017-12-01T04:18:30.667Z,14.53
2017-12-01T04:20:58.883Z,11.03
2017-12-01T04:23:26.311Z,12.87
2017-12-01T04:25:53.759Z,11.63
2017-12-01T04:28:22.067Z,10.90
2017-12-01T04:30:49.491Z,12.03
2017-12-01T04:33:17.711Z,12.93
2017-12-01T04:35:45.147Z,12.07
2017-12-01T04:38:12.583Z,12.23
2017-12-01T04:40:40.789Z,12.83
2017-12-01T04:43:08.231Z,12.40
2017-12-01T04:45:35.671Z,12.87
2017-12-01T04:48:03.119Z,15.07
2017-12-01T04:50:31.329Z,10.93
2017-12-01T04:52:58.767Z,12.03
2017-12-01T04:55:26.217Z,12.00
2017-12-01T04:57:53.650Z,13.27
2017-12-01T05:00:21.859Z,14.30
2017-12-01T05:02:49.304Z,14.60
2017-12-01T05:05:17.507Z,15.70
2017-12-01T05:07:44.952Z,12.30
2017-12-01T05:10:12.400Z,16.50
2017-12-01T05:12:39.844Z,14.83
2017-12-01T05:15:08.150Z,15.17
2017-12-01T05:17:35.499Z,12.90
2017-12-01T05:20:03.008Z,12.70
2017-12-01T05:22:31.963Z,13.60
2017-12-01T05:24:59.395Z,12.17
2017-12-01T05:27:26.892Z,12.50
2017-12-01T05:29:54.331Z,11.23
2017-12-01T05:32:21.792Z,12.73
2017-12-01T05:34:49.923Z,12.90
2017-12-01T05:37:18.135Z,12.80
2017-12-01T05:39:45.577Z,13.53
2017-12-01T05:42:13.016Z,13.50
2017-12-01T05:44:40.459Z,13.83
2017-12-01T05:47:08.671Z,14.20
2017-12-01T05:49:36.143Z,14.47
2017-12-01T05:52:03.584Z,13.03
2017-12-01T05:54:31.059Z,12.70
2017-12-01T05:56:58.504Z,14.07
2017-12-01T05:59:25.944Z,11.87
2017-12-01T06:01:53.427Z,11.20
2017-12-01T06:04:20.873Z,10.73
2017-12-01T06:06:48.312Z,9.80
2017-12-01T06:09:15.773Z,9.07
2017-12-01T06:11:43.211Z,9.10
2017-12-01T06:14:10.655Z,10.57
2017-12-01T06:16:38.868Z,9.93
2017-12-01T06:19:06.298Z,8.63
2017-12-01T06:21:33.747Z,9.40
2017-12-01T06:24:01.971Z,9.77
2017-12-01T06:26:29.625Z,9.10
2017-12-01T06:28:57.060Z,10.37
2017-12-01T06:31:24.503Z,9.10
2017-12-01T06:33:51.999Z,10.17
2017-12-01T06:36:19.440Z,10.87
2017-12-01T06:38:46.883Z,9.23
2017-12-01T06:41:14.331Z,10.70
2017-12-01T06:43:41.775Z,11.13
2017-12-01T06:46:09.984Z,10.43
2017-12-01T06:48:37.423Z,10.23
2017-12-01T06:51:04.916Z,11.30
2017-12-01T06:53:32.356Z,10.07
2017-12-01T06:55:59.800Z,10.30
2017-12-01T06:58:27.234Z,9.80
2017-12-01T07:00:54.680Z,10.43
2017-12-01T07:03:22.884Z,9.03
2017-12-01T07:05:50.320Z,9.73
2017-12-01T07:08:17.764Z,10.37
2017-12-01T07:10:45.967Z,9.47
2017-12-01T07:13:13.420Z,10.30
2017-12-01T07:15:40.859Z,10.07
2017-12-01T07:18:09.076Z,10.80
2017-12-01T07:20:36.539Z,11.20
2017-12-01T07:23:03.979Z,9.93
2017-12-01T07:25:31.427Z,13.63
2017-12-01T07:27:58.872Z,11.93
2017-12-01T07:30:26.310Z,11.07
2017-12-01T07:32:54.511Z,11.73
2017-12-01T07:35:21.974Z,13.00
2017-12-01T07:37:49.406Z,11.50
2017-12-01T07:40:17.607Z,12.13
2017-12-01T07:42:45.047Z,12.53
2017-12-01T07:45:12.483Z,11.20
2017-12-01T07:47:40.694Z,10.90
2017-12-01T07:50:08.133Z,11.30
2017-12-01T07:52:35.579Z,10.83
2017-12-01T07:55:03.787Z,9.73
2017-12-01T07:57:31.232Z,9.00
2017-12-01T07:59:58.672Z,9.83
2017-12-01T08:02:26.602Z,11.47
2017-12-01T08:04:54.042Z,8.90
2017-12-01T08:07:22.246Z,10.20
2017-12-01T08:09:51.371Z,10.50
2017-12-01T08:12:18.798Z,12.80
2017-12-01T08:14:47.006Z,10.80
2017-12-01T08:17:26.419Z,11.60
2017-12-01T08:19:54.627Z,11.23
2017-12-01T08:22:34.022Z,11.60
2017-12-01T08:25:14.107Z,13.90
2017-12-01T08:27:41.538Z,11.30
2017-12-01T08:30:09.748Z,11.57
2017-12-01T08:32:37.179Z,11.60
2017-12-01T08:35:04.976Z,11.07
2017-12-01T08:37:32.424Z,10.53
2017-12-01T08:40:00.358Z,8.77
2017-12-01T08:42:28.583Z,10.33
2017-12-01T08:44:56.027Z,9.30
2017-12-01T08:47:23.458Z,9.87
2017-12-01T08:49:50.898Z,10.00
2017-12-01T08:52:19.102Z,10.90
2017-12-01T08:54:46.533Z,12.10
2017-12-01T08:57:14.734Z,10.80
2017-12-01T08:59:42.183Z,10.27
2017-12-01T09:02:09.620Z,10.27
2017-12-01T09:04:37.826Z,11.70
2017-12-01T09:07:05.258Z,9.80
2017-12-01T09:09:32.698Z,10.30
2017-12-01T09:12:00.904Z,12.50
2017-12-01T09:14:28.346Z,11.97
2017-12-01T09:16:55.774Z,9.17
2017-12-01T09:19:23.214Z,9.23
2017-12-01T09:21:50.762Z,8.90
2017-12-01T09:24:18.194Z,8.73
2017-12-01T09:26:45.626Z,8.57
2017-12-01T09:29:13.070Z,10.27
2017-12-01T09:31:41.275Z,10.30
2017-12-01T09:34:08.711Z,9.83
2017-12-01T09:36:36.210Z,9.63
2017-12-01T09:39:03.656Z,11.60
2017-12-01T09:41:31.106Z,10.97
2017-12-01T09:43:58.543Z,10.47
2017-12-01T09:46:25.983Z,9.93
2017-12-01T09:48:54.183Z,8.83
2017-12-01T09:51:21.614Z,8.93
2017-12-01T09:53:49.816Z,9.77
2017-12-01T09:56:17.255Z,8.00
2017-12-01T09:58:44.678Z,9.10
2017-12-01T10:01:12.111Z,8.40
2017-12-01T10:03:39.909Z,8.80
2017-12-01T10:06:07.343Z,9.40
2017-12-01T10:08:34.778Z,9.33
2017-12-01T10:11:02.219Z,8.77
2017-12-01T10:13:29.702Z,9.90
2017-12-01T10:15:57.150Z,10.50
2017-12-01T10:18:24.578Z,9.57
2017-12-01T10:20:52.019Z,9.17
2017-12-01T10:23:19.455Z,9.27
2017-12-01T10:25:46.895Z,9.83
2017-12-01T10:28:15.852Z,9.53
2017-12-01T10:30:43.322Z,10.00
2017-12-01T10:33:10.763Z,10.57
2017-12-01T10:35:38.206Z,9.23
2017-12-01T10:38:05.674Z,10.03
2017-12-01T10:40:33.099Z,10.63
2017-12-01T10:43:01.952Z,10.63
2017-12-01T10:45:29.390Z,11.17
2017-12-01T10:47:56.892Z,9.83
2017-12-01T10:50:25.100Z,10.10
2017-12-01T10:52:52.543Z,10.07
2017-12-01T10:55:20.139Z,11.37
2017-12-01T10:57:47.586Z,10.23
2017-12-01T11:00:15.011Z,8.90
2017-12-01T11:02:42.457Z,9.50
2017-12-01T11:05:10.657Z,11.47
2017-12-01T11:07:38.144Z,9.57
2017-12-01T11:10:05.582Z,10.10
2017-12-01T11:12:33.055Z,8.80
2017-12-01T11:15:00.493Z,7.70
2017-12-01T11:17:27.923Z,7.77
2017-12-01T11:19:55.362Z,7.60
2017-12-01T11:22:23.555Z,8.07
2017-12-01T11:24:50.995Z,8.07
2017-12-01T11:27:19.199Z,9.77
2017-12-01T11:29:46.682Z,10.40
2017-12-01T11:32:14.118Z,11.73
2017-12-01T11:34:41.559Z,7.60
2017-12-01T11:37:08.982Z,8.97
2017-12-01T11:39:36.510Z,9.67
2017-12-01T11:42:03.942Z,9.10
2017-12-01T11:44:31.374Z,8.80
2017-12-01T11:46:59.600Z,8.47
2017-12-01T11:49:27.034Z,9.37
2017-12-01T11:51:54.511Z,9.50
2017-12-01T11:54:22.013Z,9.03
2017-12-01T11:56:49.391Z,9.87
2017-12-01T11:59:16.821Z,9.10
2017-12-01T12:01:45.024Z,8.97
2017-12-01T12:04:12.451Z,7.60
2017-12-01T12:06:40.654Z,9.13
2017-12-01T12:09:08.694Z,10.33
2017-12-01T12:11:36.904Z,9.93
2017-12-01T12:14:04.330Z,8.80
2017-12-01T12:16:32.536Z,7.17
2017-12-01T12:18:59.967Z,7.23
2017-12-01T12:21:28.162Z,8.40
2017-12-01T12:23:55.612Z,11.17
2017-12-01T12:26:23.058Z,10.80
2017-12-01T12:28:50.494Z,10.97
2017-12-01T12:31:18.702Z,11.07
2017-12-01T12:33:46.134Z,9.13
2017-12-01T12:36:14.331Z,8.97
2017-12-01T12:38:41.771Z,9.90
2017-12-01T12:41:09.974Z,10.70
2017-12-01T12:43:37.410Z,9.60
2017-12-01T12:46:04.851Z,9.40
2017-12-01T12:48:33.052Z,10.20
2017-12-01T12:51:00.490Z,11.10
2017-12-01T12:53:28.638Z,11.50
2017-12-01T12:55:56.135Z,9.53
2017-12-01T12:58:23.576Z,10.70
2017-12-01T13:00:51.047Z,11.20
2017-12-01T13:03:18.489Z,10.20
2017-12-01T13:05:46.682Z,9.77
2017-12-01T13:08:14.126Z,10.07
2017-12-01T13:10:41.565Z,10.40
2017-12-01T13:13:09.763Z,8.70
2017-12-01T13:15:37.202Z,9.73
2017-12-01T13:18:05.423Z,10.80
2017-12-01T13:20:32.858Z,10.17
2017-12-01T13:23:00.302Z,10.77
2017-12-01T13:25:27.742Z,11.93
2017-12-01T13:27:56.560Z,11.63
2017-12-01T13:30:23.999Z,11.90
2017-12-01T13:32:51.494Z,10.80
2017-12-01T13:35:18.947Z,10.33
2017-12-01T13:37:46.402Z,10.87
2017-12-01T13:40:14.509Z,10.50
2017-12-01T13:42:41.946Z,10.47
2017-12-01T13:45:09.381Z,12.53
2017-12-01T13:47:36.823Z,13.47
2017-12-01T13:50:04.263Z,12.33
2017-12-01T13:52:31.763Z,11.80
2017-12-01T13:54:59.203Z,10.90
2017-12-01T13:57:26.647Z,10.67
2017-12-01T13:59:54.082Z,11.67
2017-12-01T14:02:22.290Z,10.40
2017-12-01T14:04:49.727Z,11.57
2017-12-01T14:07:17.168Z,11.20
2017-12-01T14:09:45.371Z,11.27
2017-12-01T14:12:12.810Z,10.73
2017-12-01T14:14:40.275Z,9.87
2017-12-01T14:17:07.755Z,11.53
2017-12-01T14:19:35.191Z,11.83
2017-12-01T14:22:02.639Z,11.60
2017-12-01T14:24:30.068Z,12.10
2017-12-01T14:26:58.267Z,11.40
2017-12-01T14:29:25.715Z,12.83
2017-12-01T14:31:53.915Z,11.73
2017-12-01T14:34:22.123Z,12.10
2017-12-01T14:36:49.558Z,12.03
2017-12-01T14:39:17.002Z,12.23
2017-12-01T14:41:44.442Z,14.93
2017-12-01T14:44:11.882Z,14.07
2017-12-01T14:46:40.086Z,14.10
2017-12-01T14:49:07.534Z,13.80
2017-12-01T14:51:34.970Z,12.37
2017-12-01T14:54:03.170Z,12.73
2017-12-01T14:56:30.618Z,11.23
2017-12-01T14:58:58.050Z,11.80
2017-12-01T15:01:26.278Z,11.07
2017-12-01T15:03:53.716Z,9.73
2017-12-01T15:06:21.147Z,9.77
2017-12-01T15:08:48.590Z,10.97
2017-12-01T15:11:16.795Z,12.20
2017-12-01T15:13:44.239Z,12.17
2017-12-01T15:16:11.678Z,11.63
2017-12-01T15:18:39.907Z,11.27
2017-12-01T15:21:07.343Z,11.40
2017-12-01T15:23:34.783Z,14.43
2017-12-01T15:26:02.220Z,12.53
2017-12-01T15:28:30.427Z,13.83
2017-12-01T15:30:57.910Z,12.97
2017-12-01T15:33:26.170Z,12.60
2017-12-01T15:35:53.640Z,14.90
2017-12-01T15:38:21.071Z,14.40
2017-12-01T15:40:48.788Z,13.20
2017-12-01T15:43:16.218Z,13.33
2017-12-01T15:45:43.658Z,13.30
2017-12-01T15:48:11.104Z,15.40
2017-12-01T15:50:38.555Z,14.47
2017-12-01T15:53:05.999Z,12.80
2017-12-01T15:55:33.438Z,13.60
2017-12-01T15:58:01.649Z,14.20
2017-12-01T16:00:29.094Z,12.90
2017-12-01T16:02:56.779Z,13.90
2017-12-01T16:05:24.223Z,12.57
2017-12-01T16:07:51.659Z,12.90
2017-12-01T16:10:19.098Z,13.43
2017-12-01T16:12:47.297Z,11.80
2017-12-01T16:15:14.741Z,12.83
2017-12-01T16:17:43.274Z,13.83
2017-12-01T16:20:10.719Z,12.53
2017-12-01T16:22:38.156Z,14.37
2017-12-01T16:25:05.594Z,13.10
2017-12-01T16:27:33.895Z,14.20
2017-12-01T16:30:01.335Z,14.20
2017-12-01T16:32:28.770Z,12.90
2017-12-01T16:34:56.978Z,16.63
2017-12-01T16:37:24.421Z,17.50
2017-12-01T16:39:51.857Z,18.17
2017-12-01T16:42:20.065Z,16.70
2017-12-01T16:44:47.502Z,15.43
2017-12-01T16:47:14.939Z,51.53
2017-12-01T16:49:43.155Z,25.40
2017-12-01T16:52:10.587Z,16.07
2017-12-01T16:54:38.023Z,14.17
2017-12-01T16:57:06.234Z,12.60
2017-12-01T16:59:33.684Z,13.53
2017-12-01T17:02:02.303Z,13.33
2017-12-01T17:04:29.743Z,13.70
2017-12-01T17:06:57.193Z,14.43
2017-12-01T17:11:59.838Z,12.97
2017-12-01T17:14:27.279Z,15.23
2017-12-01T17:16:54.728Z,12.93
2017-12-01T17:19:22.167Z,15.67
2017-12-01T17:21:49.611Z,13.37
2017-12-01T17:24:17.067Z,12.10
2017-12-01T17:26:44.502Z,12.53
2017-12-01T17:29:11.943Z,15.40
2017-12-01T17:31:40.146Z,13.93
2017-12-01T17:34:07.627Z,15.53
2017-12-01T17:36:35.998Z,12.00
2017-12-01T17:39:03.433Z,13.60
2017-12-01T17:41:30.920Z,14.67
2017-12-01T17:43:58.354Z,14.00
2017-12-01T17:46:25.794Z,14.63
2017-12-01T17:48:53.234Z,22.77
2017-12-01T17:51:21.442Z,20.40
2017-12-01T17:53:48.882Z,18.87
2017-12-01T17:56:16.332Z,20.00
2017-12-01T17:58:44.530Z,20.57
2017-12-01T18:01:11.975Z,24.17
2017-12-01T18:03:39.420Z,18.83
2017-12-01T18:06:07.842Z,15.10
2017-12-01T18:08:35.286Z,18.50
2017-12-01T18:11:02.727Z,16.63
2017-12-01T18:13:30.172Z,20.20
2017-12-01T18:15:57.606Z,18.40
2017-12-01T18:18:25.841Z,19.90
2017-12-01T18:20:53.275Z,19.67
2017-12-01T18:23:20.722Z,20.80
2017-12-01T18:25:48.162Z,21.40
2017-12-01T18:28:16.371Z,19.20
2017-12-01T18:30:43.814Z,14.30
2017-12-01T18:33:11.263Z,18.17
2017-12-01T18:35:38.698Z,18.00
2017-12-01T18:38:06.912Z,18.93
2017-12-01T18:40:34.347Z,14.50
2017-12-01T18:43:02.138Z,16.53
2017-12-01T18:45:29.579Z,15.60
2017-12-01T18:47:57.019Z,15.70
2017-12-01T18:50:24.455Z,15.50
2017-12-01T18:52:52.668Z,15.37
2017-12-01T18:55:20.102Z,17.63
2017-12-01T18:57:47.547Z,17.20
2017-12-01T19:00:15.753Z,14.90
2017-12-01T19:02:43.190Z,21.10
2017-12-01T19:05:10.631Z,19.40
2017-12-01T19:07:38.834Z,18.43
2017-12-01T19:10:06.282Z,19.40
2017-12-01T19:12:33.774Z,35.90
2017-12-01T19:15:02.031Z,30.07
2017-12-01T19:17:29.483Z,25.30
2017-12-01T19:19:56.923Z,27.27
2017-12-01T19:22:24.861Z,25.40
2017-12-01T19:24:53.061Z,23.97
2017-12-01T19:27:21.262Z,22.63
2017-12-01T19:29:48.744Z,26.27
2017-12-01T19:32:16.175Z,23.53
2017-12-01T19:34:43.614Z,22.70
2017-12-01T19:37:11.062Z,24.10
2017-12-01T19:39:38.504Z,25.00
2017-12-01T19:42:06.820Z,23.10
2017-12-01T19:44:34.293Z,23.40
2017-12-01T19:47:01.715Z,23.97
2017-12-01T19:49:29.154Z,21.53
2017-12-01T19:51:57.355Z,26.43
2017-12-01T19:54:24.839Z,24.60
2017-12-01T19:56:52.274Z,20.53
2017-12-01T19:59:19.754Z,22.53
2017-12-01T20:01:47.695Z,25.50
2017-12-01T20:04:15.141Z,27.13
2017-12-01T20:06:42.604Z,25.07
2017-12-01T20:09:10.048Z,25.17
2017-12-01T20:11:38.249Z,26.87
2017-12-01T20:14:05.690Z,25.10
2017-12-01T20:16:33.827Z,28.67
2017-12-01T20:19:01.274Z,25.43
2017-12-01T20:21:28.706Z,27.23
2017-12-01T20:23:56.447Z,25.27
2017-12-01T20:26:23.877Z,24.23
2017-12-01T20:28:52.082Z,24.57
2017-12-01T20:31:19.520Z,24.33
2017-12-01T20:33:47.325Z,22.87
2017-12-01T20:36:14.742Z,23.40
2017-12-01T20:38:42.224Z,23.43
2017-12-01T20:41:09.664Z,23.40
2017-12-01T20:43:37.100Z,23.93
2017-12-01T20:46:05.307Z,23.30
2017-12-01T20:48:32.746Z,23.33
2017-12-01T20:51:00.230Z,23.60
2017-12-01T20:53:27.666Z,22.63
2017-12-01T20:55:55.160Z,24.77
2017-12-01T20:58:22.587Z,20.83
2017-12-01T21:00:50.071Z,23.60
2017-12-01T21:03:17.498Z,23.87
2017-12-01T21:05:44.943Z,27.40
2017-12-01T21:08:12.374Z,25.17
2017-12-01T21:10:40.582Z,26.07
2017-12-01T21:13:08.054Z,27.50
2017-12-01T21:15:35.498Z,26.40
2017-12-01T21:18:02.933Z,25.73
2017-12-01T21:20:31.127Z,24.47
2017-12-01T21:22:58.565Z,25.60
2017-12-01T21:25:26.365Z,25.47
2017-12-01T21:27:53.795Z,24.77
2017-12-01T21:30:22.799Z,26.47
2017-12-01T21:32:50.240Z,26.00
2017-12-01T21:35:17.682Z,27.33
2017-12-01T21:37:45.119Z,27.00
2017-12-01T21:40:13.332Z,27.07
2017-12-01T21:42:40.770Z,27.20
2017-12-01T21:45:08.215Z,23.80
2017-12-01T21:47:36.422Z,27.90
2017-12-01T21:50:03.894Z,26.27
2017-12-01T21:52:31.331Z,23.77
2017-12-01T21:54:58.763Z,28.50
2017-12-01T21:57:27.045Z,27.10
2017-12-01T21:59:54.482Z,25.77
2017-12-01T22:02:22.699Z,28.57
2017-12-01T22:04:50.174Z,26.37
2017-12-01T22:07:17.622Z,29.33
2017-12-01T22:09:45.050Z,29.33
2017-12-01T22:12:12.495Z,30.37
2017-12-01T22:14:40.699Z,24.27
2017-12-01T22:17:08.139Z,29.30
2017-12-01T22:19:35.569Z,29.40
2017-12-01T22:22:03.794Z,27.10
2017-12-01T22:24:31.222Z,31.00
2017-12-01T22:26:58.662Z,29.83
2017-12-01T22:29:26.861Z,28.50
2017-12-01T22:31:54.303Z,29.93
2017-12-01T22:34:21.738Z,30.33
2017-12-01T22:36:49.186Z,29.43
2017-12-01T22:39:16.714Z,31.63
2017-12-01T22:41:44.159Z,29.20
2017-12-01T22:44:11.598Z,27.07
2017-12-01T22:46:39.042Z,28.53
2017-12-01T22:49:06.523Z,30.90
2017-12-01T22:51:33.947Z,28.47
2017-12-01T22:54:02.142Z,29.70
2017-12-01T22:56:29.585Z,28.90
2017-12-01T22:58:57.786Z,29.73
2017-12-01T23:01:25.231Z,29.50
2017-12-01T23:03:52.670Z,31.40
2017-12-01T23:06:20.111Z,29.67
2017-12-01T23:08:48.327Z,33.10
2017-12-01T23:11:15.759Z,29.93
2017-12-01T23:13:43.203Z,32.77
2017-12-01T23:16:11.401Z,29.20
2017-12-01T23:18:38.848Z,30.90
2017-12-01T23:21:06.294Z,30.10
2017-12-01T23:23:34.519Z,30.07
2017-12-01T23:26:01.967Z,30.60
2017-12-01T23:28:29.413Z,29.30
2017-12-01T23:30:56.886Z,29.47
2017-12-01T23:33:24.334Z,29.97
2017-12-01T23:35:51.770Z,29.13
2017-12-01T23:38:19.222Z,30.13
2017-12-01T23:40:46.650Z,27.90
2017-12-01T23:43:14.870Z,30.33
2017-12-01T23:45:42.299Z,28.20
2017-12-01T23:48:09.742Z,28.07
2017-12-01T23:50:37.944Z,27.57
2017-12-01T23:53:05.382Z,28.97
2017-12-01T23:55:33.591Z,28.40
2017-12-01T23:58:01.046Z,29.63
